Time;durP1;ratioP1;P1;durP2;ratioP2;P2;SDS_P1;SDS_P2;PMS_P1;PMS_P2;Temp;Humidity;BMP_temperature;BMP_pressure;BME280_temperature;BME280_humidity;BME280_pressure;Samples;Min_cycle;Max_cycle;Signal;HPM_P1;HPM_P2
2022/09/10 00:00:39;;;;;;;18.73;11.90;;;14.90;99.90;;;;;;5155725;27;20517;-89
2022/09/10 00:03:24;;;;;;;19.00;11.68;;;14.80;99.90;;;;;;5139847;27;20091;-89
2022/09/10 00:06:08;;;;;;;17.80;11.55;;;;;;;;;;5140110;27;20542;-89
2022/09/10 00:08:57;;;;;;;22.40;12.57;;;14.70;99.90;;;;;;5140454;27;20037;-89
2022/09/10 00:11:42;;;;;;;16.35;12.35;;;14.70;99.90;;;;;;5156060;27;20406;-89
2022/09/10 00:14:26;;;;;;;17.42;12.55;;;14.70;99.90;;;;;;5139482;27;20033;-89
2022/09/10 00:17:10;;;;;;;16.17;12.65;;;;;;;;;;5139720;27;20042;-89
2022/09/10 00:19:55;;;;;;;19.27;12.80;;;14.70;99.90;;;;;;5139902;27;20057;-88
2022/09/10 00:22:39;;;;;;;16.90;13.18;;;14.70;99.90;;;;;;5152723;27;20079;-89
2022/09/10 00:25:23;;;;;;;17.38;12.98;;;14.60;99.90;;;;;;5146052;27;20041;-88
2022/09/10 00:28:07;;;;;;;19.98;13.60;;;14.70;99.90;;;;;;5125187;27;20057;-88
2022/09/10 00:30:53;;;;;;;19.75;14.25;;;14.80;99.90;;;;;;5140608;27;20037;-88
2022/09/10 00:33:37;;;;;;;17.08;13.10;;;14.60;99.90;;;;;;5143903;27;20496;-89
2022/09/10 00:36:25;;;;;;;21.85;14.73;;;14.90;99.90;;;;;;5147767;27;20042;-90
2022/09/10 00:39:15;;;;;;;16.67;13.48;;;15.20;99.90;;;;;;5155022;27;20489;-90
2022/09/10 00:41:59;;;;;;;21.30;14.75;;;14.80;99.90;;;;;;5155043;27;20118;-89
2022/09/10 00:44:55;;;;;;;24.73;15.00;;;14.80;99.90;;;;;;5125260;27;20115;-89
2022/09/10 00:47:40;;;;;;;18.52;14.70;;;14.70;99.90;;;;;;5154874;27;20064;-89
2022/09/10 00:50:28;;;;;;;23.80;15.45;;;14.50;99.90;;;;;;5124255;27;20046;-89
2022/09/10 00:53:16;;;;;;;23.73;15.18;;;14.60;99.90;;;;;;5139277;27;20045;-89
2022/09/10 00:56:03;;;;;;;22.30;15.25;;;14.70;99.90;;;;;;5139284;27;20160;-89
2022/09/10 00:58:48;;;;;;;20.80;14.98;;;14.70;99.90;;;;;;5139664;27;20099;-90
2022/09/10 01:01:33;;;;;;;22.60;15.93;;;14.80;99.90;;;;;;5154369;27;20099;-90
2022/09/10 01:04:18;;;;;;;22.98;15.80;;;15.00;99.90;;;;;;5138853;27;20488;-89
2022/09/10 01:07:04;;;;;;;22.13;15.43;;;14.80;99.90;;;;;;5127197;27;20033;-89
2022/09/10 01:09:49;;;;;;;25.08;16.20;;;15.00;99.90;;;;;;5138396;27;20038;-88
2022/09/10 01:13:00;;;;;;;21.58;16.55;;;14.80;99.90;;;;;;5142134;27;20037;-88
2022/09/10 01:16:07;;;;;;;27.67;17.45;;;14.80;99.90;;;;;;5138250;27;20037;-90
2022/09/10 01:19:28;;;;;;;25.00;18.05;;;14.80;99.90;;;;;;5118493;27;20084;-88
2022/09/10 01:22:31;;;;;;;24.90;18.55;;;15.00;99.90;;;;;;5118205;27;20406;-88
2022/09/10 01:25:21;;;;;;;23.73;17.75;;;14.80;99.90;;;;;;5146151;27;20397;-89
2022/09/10 01:28:12;;;;;;;24.05;17.70;;;14.80;99.90;;;;;;5138499;27;20099;-89
2022/09/10 01:31:04;;;;;;;22.85;17.70;;;14.90;99.90;;;;;;5154506;27;20447;-89
2022/09/10 01:34:00;;;;;;;25.17;17.05;;;14.80;99.90;;;;;;5138519;27;20084;-89
2022/09/10 01:36:49;;;;;;;23.42;18.35;;;15.00;99.90;;;;;;5153906;27;20488;-89
2022/09/10 01:39:33;;;;;;;26.48;19.17;;;14.90;99.90;;;;;;5153715;27;20033;-89
2022/09/10 01:42:17;;;;;;;30.25;20.30;;;15.00;99.90;;;;;;5138576;27;20046;-88
2022/09/10 01:45:02;;;;;;;25.38;18.75;;;15.00;99.90;;;;;;5138467;27;20088;-90
2022/09/10 01:48:05;;;;;;;28.83;19.42;;;15.10;99.90;;;;;;5122746;27;20077;-90
2022/09/10 01:51:03;;;;;;;32.78;19.73;;;15.00;99.90;;;;;;5145694;27;20045;-89
2022/09/10 01:53:50;;;;;;;29.85;19.90;;;15.10;99.90;;;;;;5143462;27;20050;-90
2022/09/10 01:56:41;;;;;;;26.38;20.30;;;15.00;99.90;;;;;;5136429;27;20075;-89
2022/09/10 01:59:49;;;;;;;29.35;21.13;;;15.30;99.90;;;;;;5137545;27;20110;-89
2022/09/10 02:02:42;;;;;;;29.60;20.30;;;15.10;99.90;;;;;;5137528;27;20096;-91
2022/09/10 02:05:29;;;;;;;27.38;20.85;;;15.10;99.90;;;;;;5153488;27;20480;-88
2022/09/10 02:08:19;;;;;;;28.63;20.60;;;15.10;99.90;;;;;;5154036;27;20052;-89
2022/09/10 02:11:05;;;;;;;24.95;19.45;;;15.10;99.90;;;;;;5153963;27;20405;-89
2022/09/10 02:13:49;;;;;;;30.02;21.85;;;15.10;99.90;;;;;;5153279;27;20034;-90
2022/09/10 02:16:37;;;;;;;29.48;21.50;;;15.30;99.90;;;;;;5137749;27;20103;-89
2022/09/10 02:19:21;;;;;;;32.15;22.50;;;15.00;99.90;;;;;;5138157;27;20386;-89
2022/09/10 02:22:05;;;;;;;29.75;22.92;;;15.40;99.90;;;;;;5123782;27;20066;-89
2022/09/10 02:24:50;;;;;;;34.08;23.42;;;15.00;99.90;;;;;;5139769;27;20037;-90
2022/09/10 02:27:37;;;;;;;40.10;25.40;;;14.80;99.90;;;;;;5147644;27;20037;-90
2022/09/10 02:30:23;;;;;;;35.20;24.42;;;15.00;99.90;;;;;;5140823;27;20526;-90
2022/09/10 02:33:07;;;;;;;37.78;25.92;;;15.10;99.90;;;;;;5142144;27;20545;-89
2022/09/10 02:35:53;;;;;;;43.00;26.63;;;15.30;99.90;;;;;;5138462;27;20038;-91
2022/09/10 02:38:37;;;;;;;43.38;27.92;;;14.80;99.90;;;;;;5133258;27;20073;-90
2022/09/10 02:41:23;;;;;;;42.83;27.73;;;15.10;99.90;;;;;;5127620;27;20045;-90
2022/09/10 02:44:07;;;;;;;45.78;28.10;;;15.10;99.90;;;;;;5150979;27;20042;-89
2022/09/10 02:46:51;;;;;;;46.25;28.65;;;14.90;99.90;;;;;;5117150;27;20499;-88
2022/09/10 02:49:36;;;;;;;49.50;29.30;;;15.30;99.90;;;;;;5126819;27;20167;-90
2022/09/10 02:52:20;;;;;;;42.40;27.85;;;;;;;;;;5135205;27;20591;-91
2022/09/10 02:55:05;;;;;;;40.38;27.63;;;15.10;99.90;;;;;;5135495;27;20091;-90
2022/09/10 02:57:49;;;;;;;40.00;25.15;;;15.00;99.90;;;;;;5150788;27;20068;-90
2022/09/10 03:00:34;;;;;;;38.85;26.52;;;;;;;;;;5130940;27;20073;-91
2022/09/10 03:03:17;;;;;;;40.85;27.02;;;15.20;99.90;;;;;;5127158;27;20073;-89
2022/09/10 03:06:03;;;;;;;41.72;27.52;;;15.40;99.90;;;;;;5151214;27;20037;-89
2022/09/10 03:08:48;;;;;;;34.90;24.15;;;15.30;99.90;;;;;;5148527;27;20084;-90
2022/09/10 03:11:33;;;;;;;43.97;27.63;;;15.10;99.90;;;;;;5150293;27;20144;-89
2022/09/10 03:14:21;;;;;;;42.35;26.88;;;15.20;99.90;;;;;;5135335;27;20033;-90
2022/09/10 03:17:05;;;;;;;38.78;25.73;;;15.10;99.90;;;;;;5103981;27;20504;-90
2022/09/10 03:19:50;;;;;;;36.13;23.90;;;15.40;99.90;;;;;;5126340;27;20502;-90
2022/09/10 03:22:34;;;;;;;34.83;23.02;;;15.10;99.90;;;;;;5126765;27;20049;-89
2022/09/10 03:25:18;;;;;;;47.05;26.27;;;15.00;99.90;;;;;;5132766;27;20132;-91
2022/09/10 03:28:03;;;;;;;38.15;25.33;;;15.00;99.90;;;;;;5137651;27;20056;-90
2022/09/10 03:30:47;;;;;;;32.92;23.10;;;15.00;99.90;;;;;;5140628;27;20045;-90
2022/09/10 03:33:32;;;;;;;38.95;23.20;;;15.10;99.90;;;;;;5140672;27;20075;-89
2022/09/10 03:36:17;;;;;;;33.67;22.30;;;14.90;99.90;;;;;;5149962;27;20038;-89
2022/09/10 03:39:01;;;;;;;35.50;22.90;;;15.00;99.90;;;;;;5135575;27;20102;-90
2022/09/10 03:41:48;;;;;;;33.35;21.75;;;15.10;99.90;;;;;;5140313;27;20037;-90
2022/09/10 03:44:32;;;;;;;36.85;24.60;;;15.00;99.90;;;;;;5141104;27;20083;-89
2022/09/10 03:47:17;;;;;;;30.20;21.88;;;14.90;99.90;;;;;;5143001;27;20038;-90
2022/09/10 03:50:01;;;;;;;30.90;22.52;;;15.40;99.90;;;;;;5127610;27;20096;-89
2022/09/10 03:52:45;;;;;;;31.58;22.65;;;14.90;99.90;;;;;;5155718;27;20546;-91
2022/09/10 03:55:29;;;;;;;39.25;22.73;;;15.00;99.90;;;;;;5140704;27;20390;-90
2022/09/10 03:58:15;;;;;;;34.30;24.13;;;15.10;99.90;;;;;;5141604;27;20042;-90
2022/09/10 04:00:59;;;;;;;32.88;21.95;;;15.10;99.90;;;;;;5155649;27;20085;-89
2022/09/10 04:03:43;;;;;;;30.85;21.33;;;15.10;99.90;;;;;;5125322;27;20394;-91
2022/09/10 04:06:31;;;;;;;33.50;22.90;;;14.90;99.90;;;;;;5156212;27;20065;-91
2022/09/10 04:09:15;;;;;;;34.15;22.35;;;14.80;99.90;;;;;;5126415;27;20045;-90
2022/09/10 04:11:59;;;;;;;29.35;21.65;;;14.90;99.90;;;;;;5125180;27;20038;-89
2022/09/10 04:14:45;;;;;;;30.20;21.90;;;;;;;;;;5155369;27;20042;-90
2022/09/10 04:17:29;;;;;;;32.85;21.25;;;15.00;99.90;;;;;;5140316;27;20033;-90
2022/09/10 04:20:14;;;;;;;32.05;22.05;;;15.10;99.90;;;;;;5139900;27;20070;-90
2022/09/10 04:22:59;;;;;;;31.63;21.10;;;14.90;99.90;;;;;;5118951;27;20070;-90
2022/09/10 04:25:43;;;;;;;32.92;21.67;;;;;;;;;;5129565;27;20080;-90
2022/09/10 04:28:27;;;;;;;33.80;21.05;;;15.30;99.90;;;;;;5117998;27;20041;-90
2022/09/10 04:31:11;;;;;;;33.95;21.20;;;14.90;99.90;;;;;;5121548;27;20406;-89
2022/09/10 04:33:55;;;;;;;30.27;20.85;;;15.00;99.90;;;;;;5137951;27;20501;-90
2022/09/10 04:36:40;;;;;;;30.98;21.35;;;15.30;99.90;;;;;;5119268;27;20042;-90
2022/09/10 04:39:24;;;;;;;29.75;20.42;;;15.00;99.90;;;;;;5137849;27;20083;-91
2022/09/10 04:42:09;;;;;;;28.83;21.10;;;15.00;99.90;;;;;;5124760;27;20491;-91
2022/09/10 04:44:53;;;;;;;30.85;20.60;;;14.80;99.90;;;;;;5111138;27;20073;-91
2022/09/10 04:47:37;;;;;;;30.90;20.58;;;15.20;99.90;;;;;;5122987;27;20560;-90
2022/09/10 04:55:34;;;;;;;31.20;20.13;;;15.10;99.90;;;;;;5156645;22;20052;-90
2022/09/10 04:58:18;;;;;;;28.65;20.65;;;;;;;;;;5072550;28;20095;-90
2022/09/10 05:01:02;;;;;;;32.70;21.10;;;15.00;99.90;;;;;;5058009;28;20097;-90
2022/09/10 05:03:46;;;;;;;33.92;22.58;;;15.10;99.90;;;;;;5068132;28;20127;-89
2022/09/10 05:06:30;;;;;;;30.75;19.95;;;14.80;99.90;;;;;;5072315;28;20043;-89
2022/09/10 05:09:16;;;;;;;33.03;21.48;;;15.00;99.90;;;;;;5043529;28;20063;-90
2022/09/10 05:12:01;;;;;;;31.45;20.85;;;15.40;99.90;;;;;;5072780;28;20043;-89
2022/09/10 05:14:45;;;;;;;29.63;21.35;;;15.00;99.90;;;;;;5060392;28;20035;-90
2022/09/10 05:17:30;;;;;;;35.65;21.52;;;15.00;99.90;;;;;;5057061;28;20109;-90
2022/09/10 05:20:14;;;;;;;37.17;20.92;;;14.70;99.90;;;;;;5057263;28;20078;-90
2022/09/10 05:22:58;;;;;;;32.58;21.30;;;15.00;99.90;;;;;;5043395;28;20048;-90
2022/09/10 05:25:43;;;;;;;31.90;20.02;;;15.30;99.90;;;;;;5043240;28;20109;-91
2022/09/10 05:28:27;;;;;;;40.33;21.15;;;15.10;99.90;;;;;;5071959;28;20089;-90
2022/09/10 05:31:12;;;;;;;30.20;20.88;;;15.00;99.90;;;;;;5043040;28;20458;-90
2022/09/10 05:34:00;;;;;;;28.98;20.23;;;15.10;99.90;;;;;;5057616;28;20094;-90
2022/09/10 05:36:43;;;;;;;33.47;20.95;;;15.10;99.90;;;;;;5072049;28;20036;-90
2022/09/10 05:39:27;;;;;;;31.60;20.27;;;15.50;99.90;;;;;;5065276;28;20078;-90
2022/09/10 05:42:12;;;;;;;39.47;22.13;;;15.00;99.90;;;;;;5040386;28;20108;-90
2022/09/10 05:44:56;;;;;;;35.28;23.30;;;16.10;99.90;;;;;;5068758;28;20043;-90
2022/09/10 05:47:42;;;;;;;41.03;22.58;;;15.20;99.90;;;;;;5056666;28;20118;-90
2022/09/10 05:50:27;;;;;;;35.42;23.05;;;15.20;99.90;;;;;;5056965;28;20085;-91
2022/09/10 05:53:12;;;;;;;42.83;23.27;;;15.70;99.90;;;;;;5057228;28;20090;-91
2022/09/10 05:55:56;;;;;;;41.75;22.58;;;15.30;99.90;;;;;;5055458;28;20063;-90
2022/09/10 05:58:43;;;;;;;43.95;23.35;;;15.10;99.90;;;;;;5070933;28;20035;-90
2022/09/10 06:01:28;;;;;;;49.63;25.08;;;15.50;99.90;;;;;;5056802;28;20094;-91
2022/09/10 06:04:12;;;;;;;45.30;24.02;;;15.30;99.90;;;;;;5030037;28;20040;-89
2022/09/10 06:06:56;;;;;;;42.35;23.10;;;15.20;99.90;;;;;;5072003;28;20042;-91
2022/09/10 06:09:40;;;;;;;40.75;23.58;;;15.30;99.90;;;;;;5056621;28;20151;-90
2022/09/10 06:12:25;;;;;;;41.45;23.52;;;;;;;;;;5056513;28;20140;-90
2022/09/10 06:15:09;;;;;;;36.15;23.60;;;;;;;;;;5044325;28;20048;-90
2022/09/10 06:17:55;;;;;;;43.70;23.90;;;15.60;99.90;;;;;;5058931;28;20499;-90
2022/09/10 06:20:39;;;;;;;39.28;22.75;;;15.10;99.90;;;;;;5041482;28;20101;-91
2022/09/10 06:23:24;;;;;;;41.80;23.90;;;15.40;99.90;;;;;;5042174;28;20464;-91
2022/09/10 06:26:14;;;;;;;36.00;22.02;;;15.30;99.90;;;;;;5056252;28;20106;-90
2022/09/10 06:28:58;;;;;;;48.20;24.38;;;15.60;99.90;;;;;;5071304;28;20086;-90
2022/09/10 06:31:42;;;;;;;37.08;21.73;;;15.50;99.90;;;;;;5072445;28;20129;-92
2022/09/10 06:34:27;;;;;;;36.90;21.95;;;;;;;;;;5066281;28;20055;-90
2022/09/10 06:37:13;;;;;;;38.28;22.25;;;;;;;;;;5071451;28;20089;-91
2022/09/10 06:39:57;;;;;;;38.00;22.60;;;15.60;99.90;;;;;;5056941;28;20044;-90
2022/09/10 06:42:41;;;;;;;36.28;22.13;;;15.80;99.90;;;;;;5038562;28;20047;-89
2022/09/10 06:45:26;;;;;;;35.20;22.65;;;15.60;99.90;;;;;;5057758;28;20043;-92
2022/09/10 06:48:11;;;;;;;43.00;23.35;;;;;;;;;;5043397;28;20078;-91
2022/09/10 06:51:01;;;;;;;36.80;22.40;;;15.90;99.90;;;;;;5072017;28;20070;-92
2022/09/10 06:53:45;;;;;;;38.95;23.65;;;15.80;99.90;;;;;;5064401;28;20044;-90
2022/09/10 06:56:47;;;;;;;37.45;22.15;;;15.80;99.90;;;;;;5069221;28;20035;-91
2022/09/10 06:59:32;;;;;;;42.05;22.52;;;;;;;;;;5067139;28;20082;-93
2022/09/10 07:02:16;;;;;;;45.38;23.33;;;15.80;99.90;;;;;;5057182;28;20534;-95
2022/09/10 07:05:00;;;;;;;39.95;22.40;;;;;;;;;;5057589;28;20091;-94
2022/09/10 07:07:45;;;;;;;37.35;23.02;;;15.50;99.90;;;;;;5043507;28;20040;-94
2022/09/10 07:10:31;;;;;;;37.63;22.05;;;15.70;99.90;;;;;;5046464;28;20051;-95
2022/09/10 07:13:15;;;;;;;39.58;22.80;;;15.80;99.90;;;;;;5073053;28;20039;-91
2022/09/10 07:16:02;;;;;;;40.25;22.45;;;;;;;;;;5059578;28;20047;-92
2022/09/10 07:18:53;;;;;;;37.47;21.80;;;16.40;99.90;;;;;;5042905;28;20040;-95
2022/09/10 07:21:38;;;;;;;37.80;21.98;;;;;;;;;;5060402;28;20498;-95
2022/09/10 07:24:22;;;;;;;36.95;20.48;;;15.90;99.90;;;;;;5058885;28;20071;-93
2022/09/10 07:27:06;;;;;;;37.17;22.05;;;16.00;99.90;;;;;;5059260;28;20059;-93
2022/09/10 07:29:51;;;;;;;33.95;20.45;;;16.00;99.90;;;;;;5045657;28;20046;-94
2022/09/10 07:32:35;;;;;;;32.42;20.25;;;;;;;;;;5042292;28;20392;-92
2022/09/10 07:35:20;;;;;;;36.92;21.92;;;16.40;99.90;;;;;;5060449;28;20067;-93
2022/09/10 07:38:05;;;;;;;38.55;22.20;;;16.20;99.90;;;;;;5059887;28;20075;-93
2022/09/10 07:40:51;;;;;;;32.78;21.40;;;16.30;99.90;;;;;;5054507;28;20097;-93
2022/09/10 07:43:39;;;;;;;34.22;20.58;;;16.80;99.90;;;;;;5059929;28;20093;-94
2022/09/10 07:46:24;;;;;;;31.80;20.50;;;17.10;99.90;;;;;;5074687;28;20399;-93
2022/09/10 07:49:08;;;;;;;32.78;20.15;;;16.50;99.90;;;;;;5046044;28;20094;-93
2022/09/10 07:51:55;;;;;;;30.75;20.42;;;16.50;99.90;;;;;;5038964;28;20040;-93
2022/09/10 07:54:39;;;;;;;32.70;21.17;;;;;;;;;;5041782;28;20062;-93
2022/09/10 07:57:24;;;;;;;32.13;20.08;;;16.70;99.90;;;;;;5074846;28;20044;-92
2022/09/10 08:00:11;;;;;;;34.45;21.63;;;16.70;99.90;;;;;;5045669;28;20573;-91
2022/09/10 08:02:55;;;;;;;34.65;20.83;;;16.90;99.90;;;;;;5053697;28;20086;-93
2022/09/10 08:05:40;;;;;;;32.80;21.48;;;;;;;;;;5045465;28;20085;-93
2022/09/10 08:08:31;;;;;;;35.53;20.75;;;16.90;99.90;;;;;;5074897;28;20044;-93
2022/09/10 08:11:17;;;;;;;36.90;21.35;;;16.70;99.90;;;;;;5059372;28;20044;-92
2022/09/10 08:14:02;;;;;;;34.15;20.63;;;16.60;99.90;;;;;;5044791;28;20125;-92
2022/09/10 08:16:46;;;;;;;30.48;20.15;;;16.70;99.90;;;;;;5059174;28;20525;-92
2022/09/10 08:19:30;;;;;;;30.55;19.67;;;16.90;99.90;;;;;;5046541;28;20075;-93
2022/09/10 08:22:15;;;;;;;35.60;20.92;;;17.60;99.90;;;;;;5059064;28;20043;-92
2022/09/10 08:25:00;;;;;;;30.65;20.02;;;16.90;99.90;;;;;;5053120;28;20072;-93
2022/09/10 08:27:44;;;;;;;31.85;21.17;;;;;;;;;;5058789;28;20487;-92
2022/09/10 08:30:30;;;;;;;31.70;20.67;;;16.70;99.90;;;;;;5074131;28;20058;-92
2022/09/10 08:33:15;;;;;;;31.92;20.70;;;17.00;99.90;;;;;;5062201;28;20043;-91
2022/09/10 08:36:01;;;;;;;30.65;21.65;;;17.00;99.90;;;;;;5058622;28;20162;-91
2022/09/10 08:38:45;;;;;;;31.67;20.35;;;17.30;99.90;;;;;;5039099;28;20079;-93
2022/09/10 08:41:38;;;;;;;26.50;19.00;;;17.30;99.90;;;;;;5039296;28;20514;-92
2022/09/10 08:44:32;;;;;;;29.63;19.00;;;17.40;99.90;;;;;;5058719;28;20044;-92
2022/09/10 08:47:25;;;;;;;27.70;18.98;;;17.60;99.90;;;;;;5058682;28;20043;-92
2022/09/10 08:50:48;;;;;;;27.75;18.95;;;17.60;99.90;;;;;;5058688;28;20043;-92
2022/09/10 08:53:42;;;;;;;26.38;17.80;;;17.80;99.90;;;;;;5058659;28;20036;-93
2022/09/10 08:56:27;;;;;;;28.88;18.83;;;17.80;99.90;;;;;;5058612;28;20403;-92
2022/09/10 08:59:21;;;;;;;29.52;17.65;;;17.90;99.90;;;;;;5073005;28;20039;-90
2022/09/10 09:02:14;;;;;;;32.00;18.35;;;17.80;99.90;;;;;;5072905;28;20035;-92
2022/09/10 09:05:03;;;;;;;;;;;18.20;99.90;;;;;;5058639;28;20067;-93
2022/09/10 09:07:50;;;;;;;26.88;15.55;;;17.90;99.90;;;;;;5061931;28;19958;-91
2022/09/10 09:10:59;;;;;;;20.13;14.82;;;18.30;99.90;;;;;;5055371;28;20451;-93
2022/09/10 09:13:52;;;;;;;22.42;12.77;;;18.50;99.90;;;;;;5058260;28;20058;-93
2022/09/10 09:17:04;;;;;;;19.63;12.45;;;18.20;99.90;;;;;;5073515;28;20434;-92
2022/09/10 09:20:21;;;;;;;25.50;15.68;;;18.40;99.90;;;;;;5073442;28;20035;-92
2022/09/10 09:23:20;;;;;;;28.02;15.02;;;18.50;99.90;;;;;;5046391;28;20541;-93
2022/09/10 09:26:14;;;;;;;23.80;14.85;;;18.60;99.90;;;;;;5072529;28;20035;-92
2022/09/10 09:29:04;;;;;;;22.95;13.80;;;18.70;99.90;;;;;;5072616;28;20442;-94
2022/09/10 09:31:56;;;;;;;18.52;12.52;;;18.60;99.90;;;;;;5072698;28;20132;-91
2022/09/10 09:34:53;;;;;;;20.23;13.75;;;19.00;99.90;;;;;;5051853;28;20052;-92
2022/09/10 09:37:46;;;;;;;23.73;14.02;;;19.10;99.90;;;;;;5057676;28;20067;-92
2022/09/10 09:41:13;;;;;;;24.15;13.10;;;18.90;99.90;;;;;;5058442;28;20047;-92
2022/09/10 09:44:10;;;;;;;21.67;13.35;;;19.30;99.90;;;;;;5015847;28;20146;-93
2022/09/10 09:46:55;;;;;;;16.80;12.43;;;19.60;99.90;;;;;;5046039;28;20032;-94
2022/09/10 09:49:40;;;;;;;20.50;13.38;;;19.50;99.90;;;;;;5037576;28;20048;-91
2022/09/10 09:52:28;;;;;;;18.45;11.27;;;19.80;99.90;;;;;;5057527;28;20087;-92
2022/09/10 09:55:40;;;;;;;16.55;10.40;;;19.90;99.90;;;;;;5059149;28;20109;-92
2022/09/10 09:58:26;;;;;;;17.02;10.88;;;19.80;99.90;;;;;;5057157;28;20038;-92
2022/09/10 10:01:14;;;;;;;18.08;11.45;;;19.80;99.90;;;;;;5057960;28;20048;-92
2022/09/10 10:04:02;;;;;;;15.90;11.25;;;19.80;99.90;;;;;;5071091;28;20040;-92
2022/09/10 10:06:54;;;;;;;19.45;11.52;;;19.80;99.90;;;;;;5072500;28;20082;-91
2022/09/10 10:09:42;;;;;;;17.33;12.07;;;19.60;99.90;;;;;;5057484;28;20094;-92
2022/09/10 10:12:31;;;;;;;21.08;12.25;;;19.70;99.90;;;;;;5056989;28;20408;-91
2022/09/10 10:15:39;;;;;;;14.30;11.23;;;19.80;99.90;;;;;;5057047;28;20040;-92
2022/09/10 10:18:30;;;;;;;16.88;11.30;;;19.70;99.90;;;;;;5063188;28;20499;-91
2022/09/10 10:21:18;;;;;;;15.68;11.82;;;19.70;99.90;;;;;;5057082;28;20044;-92
2022/09/10 10:24:30;;;;;;;18.38;12.88;;;19.80;99.90;;;;;;5071993;28;20040;-92
2022/09/10 10:27:22;;;;;;;16.65;10.82;;;19.40;99.90;;;;;;5072015;28;20035;-92
2022/09/10 10:30:16;;;;;;;23.40;10.98;;;19.80;99.90;;;;;;5057103;28;20040;-91
2022/09/10 10:33:02;;;;;;;16.70;10.13;;;19.90;99.90;;;;;;5072417;28;20062;-92
2022/09/10 10:35:56;;;;;;;17.80;12.10;;;19.60;99.90;;;;;;5057375;28;20044;-92
2022/09/10 10:38:52;;;;;;;15.95;10.93;;;20.30;99.90;;;;;;5057198;28;20036;-91
2022/09/10 10:41:49;;;;;;;15.07;10.93;;;20.50;99.90;;;;;;5072130;28;20119;-91
2022/09/10 10:44:49;;;;;;;15.32;10.55;;;20.40;99.90;;;;;;5075395;28;20035;-91
2022/09/10 10:48:02;;;;;;;17.33;12.10;;;20.40;99.90;;;;;;5076138;28;20054;-91
2022/09/10 10:51:14;;;;;;;18.87;11.97;;;20.50;99.90;;;;;;5063047;28;20098;-91
2022/09/10 10:54:05;;;;;;;17.10;11.07;;;20.40;99.90;;;;;;5075792;28;20104;-91
2022/09/10 10:56:58;;;;;;;15.60;10.70;;;20.20;99.90;;;;;;5075874;28;20074;-91
2022/09/10 11:00:05;;;;;;;13.13;9.55;;;20.40;99.90;;;;;;5075794;28;20499;-91
2022/09/10 11:03:17;;;;;;;17.65;10.88;;;20.70;99.90;;;;;;5060584;28;20039;-90
2022/09/10 11:06:24;;;;;;;13.70;10.35;;;20.40;99.90;;;;;;5060760;28;20086;-91
2022/09/10 11:09:23;;;;;;;16.45;9.90;;;20.40;99.90;;;;;;5060151;28;20040;-92
2022/09/10 11:12:37;;;;;;;14.50;10.85;;;20.50;99.90;;;;;;5057774;28;20502;-92
2022/09/10 11:15:27;;;;;;;17.75;10.48;;;20.50;99.90;;;;;;5060165;28;20419;-92
2022/09/10 11:18:38;;;;;;;17.75;11.43;;;20.50;99.90;;;;;;5060127;28;20036;-92
2022/09/10 11:22:27;;;;;;;16.95;11.25;;;20.60;99.90;;;;;;5048348;28;20404;-91
2022/09/10 11:25:25;;;;;;;15.23;10.80;;;20.90;99.90;;;;;;5000873;28;20101;-93
2022/09/10 11:28:18;;;;;;;14.27;9.52;;;21.00;99.90;;;;;;5040620;28;20032;-87
2022/09/10 11:31:34;;;;;;;15.13;9.95;;;21.10;99.90;;;;;;5073681;28;20515;-86
2022/09/10 11:34:37;;;;;;;14.70;9.35;;;21.30;99.90;;;;;;5060829;28;20087;-93
2022/09/10 11:37:37;;;;;;;12.82;9.05;;;21.30;99.90;;;;;;5054649;28;20496;-93
2022/09/10 11:40:50;;;;;;;10.95;8.57;;;21.30;99.90;;;;;;5054591;28;20082;-93
2022/09/10 11:43:36;;;;;;;14.60;8.48;;;;;;;;;;5050611;28;20047;-93
2022/09/10 11:46:44;;;;;;;15.95;9.50;;;21.30;99.90;;;;;;5061528;28;20062;-94
2022/09/10 11:49:58;;;;;;;11.48;9.45;;;21.30;99.90;;;;;;5060060;28;20534;-93
2022/09/10 11:52:42;;;;;;;;;;;21.30;99.90;;;;;;5053000;28;20428;-94
2022/09/10 11:56:05;;;;;;;11.57;8.45;;;21.50;99.90;;;;;;5053832;28;19923;-91
2022/09/10 11:58:52;;;;;;;17.00;10.52;;;;;;;;;;5054552;28;20502;-92
2022/09/10 12:02:01;;;;;;;12.85;8.95;;;21.80;99.90;;;;;;5053752;28;20039;-94
2022/09/10 12:04:46;;;;;;;14.02;9.23;;;;;;;;;;5055276;28;20068;-95
2022/09/10 12:07:41;;;;;;;14.77;10.48;;;21.50;99.90;;;;;;5053995;28;20064;-94
2022/09/10 12:10:27;;;;;;;13.40;9.10;;;;;;;;;;5053637;28;20451;-93
2022/09/10 12:13:16;;;;;;;11.40;8.88;;;21.50;99.90;;;;;;5054111;28;20032;-93
2022/09/10 12:16:28;;;;;;;11.80;8.57;;;21.40;99.90;;;;;;5039889;28;20087;-92
2022/09/10 12:19:23;;;;;;;11.80;8.20;;;21.40;99.90;;;;;;5053415;28;20059;-91
2022/09/10 12:22:28;;;;;;;9.45;6.97;;;21.40;99.90;;;;;;5040397;28;20040;-91
2022/09/10 12:25:24;;;;;;;11.93;7.88;;;21.40;99.90;;;;;;5054298;28;20487;-91
2022/09/10 12:28:40;;;;;;;9.60;7.13;;;21.40;99.90;;;;;;5033701;28;20032;-90
2022/09/10 12:31:44;;;;;;;10.68;7.30;;;21.40;99.90;;;;;;5054780;28;20530;-92
2022/09/10 12:34:30;;;;;;;10.32;7.25;;;;;;;;;;5041783;28;20385;-91
2022/09/10 12:37:32;;;;;;;11.10;6.93;;;21.50;99.90;;;;;;5054546;28;20048;-92
2022/09/10 12:40:36;;;;;;;9.57;6.70;;;21.60;99.90;;;;;;5053366;28;20081;-93
2022/09/10 12:43:42;;;;;;;9.57;6.20;;;21.70;99.90;;;;;;5027727;28;20068;-90
2022/09/10 12:46:27;;;;;;;10.20;6.18;;;21.90;99.90;;;;;;5051668;28;20051;-93
2022/09/10 12:49:13;;;;;;;12.48;7.68;;;22.10;99.90;;;;;;5032251;28;20083;-93
2022/09/10 12:52:00;;;;;;;9.00;6.57;;;22.20;99.90;;;;;;5045908;28;20048;-90
2022/09/10 12:55:21;;;;;;;9.00;6.28;;;22.10;99.90;;;;;;5059222;28;20107;-91
2022/09/10 12:58:28;;;;;;;10.50;6.13;;;22.00;99.90;;;;;;5040902;28;20502;-92
2022/09/10 13:01:27;;;;;;;9.68;6.20;;;22.10;99.90;;;;;;5058149;28;20055;-91
2022/09/10 13:04:24;;;;;;;6.85;5.32;;;22.10;99.90;;;;;;5045245;28;20046;-93
2022/09/10 13:07:32;;;;;;;8.18;5.80;;;22.10;99.90;;;;;;5057588;28;20108;-92
2022/09/10 13:10:19;;;;;;;8.77;5.82;;;22.30;99.90;;;;;;5058136;28;20036;-91
2022/09/10 13:13:06;;;;;;;9.18;5.53;;;22.40;99.90;;;;;;5073397;28;20086;-91
2022/09/10 13:15:52;;;;;;;9.48;5.20;;;22.40;99.90;;;;;;5058056;28;20051;-91
2022/09/10 13:18:36;;;;;;;7.45;5.13;;;22.50;99.90;;;;;;5051949;28;20036;-92
2022/09/10 13:21:23;;;;;;;6.40;4.43;;;22.40;99.90;;;;;;5045925;28;20119;-92
2022/09/10 13:24:33;;;;;;;8.98;5.63;;;22.00;99.90;;;;;;5058160;28;20400;-91
2022/09/10 13:27:35;;;;;;;8.18;5.78;;;21.80;99.90;;;;;;5058068;28;20040;-92
2022/09/10 13:30:21;;;;;;;8.50;5.05;;;21.60;99.90;;;;;;5073202;28;20089;-93
2022/09/10 13:33:10;;;;;;;9.77;5.38;;;21.60;99.90;;;;;;5058339;28;20503;-91
2022/09/10 13:36:04;;;;;;;6.15;5.40;;;21.90;99.90;;;;;;5057484;28;20093;-89
2022/09/10 13:38:54;;;;;;;8.77;4.95;;;22.40;99.90;;;;;;5070695;28;20036;-91
2022/09/10 13:42:16;;;;;;;6.85;4.68;;;22.60;99.90;;;;;;5058388;28;20056;-87
2022/09/10 13:45:15;;;;;;;7.93;5.18;;;22.60;99.90;;;;;;5047349;28;20093;-88
2022/09/10 13:48:08;;;;;;;8.90;4.63;;;22.80;99.90;;;;;;5057844;28;20526;-88
2022/09/10 13:51:12;;;;;;;6.15;3.88;;;23.00;99.90;;;;;;5050372;28;20075;-87
2022/09/10 13:54:06;;;;;;;8.23;5.40;;;23.40;99.90;;;;;;5057508;28;20040;-87
2022/09/10 13:56:51;;;;;;;7.00;4.40;;;;;;;;;;5056749;28;20113;-87
2022/09/10 13:59:36;;;;;;;6.60;4.57;;;23.60;99.90;;;;;;5056575;28;20039;-87
2022/09/10 14:02:38;;;;;;;9.95;6.00;;;23.60;99.90;;;;;;5072896;28;20070;-88
2022/09/10 14:05:32;;;;;;;8.95;6.38;;;23.20;99.90;;;;;;5056859;28;20052;-86
2022/09/10 14:08:20;;;;;;;9.05;6.03;;;22.90;99.90;;;;;;5052067;28;20027;-88
2022/09/10 14:11:15;;;;;;;7.57;5.38;;;22.80;99.90;;;;;;5069411;28;20051;-87
2022/09/10 14:14:18;;;;;;;7.30;4.97;;;22.80;99.90;;;;;;5051719;28;20040;-87
2022/09/10 14:17:13;;;;;;;7.65;5.07;;;22.90;99.90;;;;;;5072894;28;20032;-86
2022/09/10 14:20:07;;;;;;;9.40;4.88;;;23.20;99.90;;;;;;5060774;28;20035;-86
2022/09/10 14:23:01;;;;;;;9.85;5.13;;;23.40;99.90;;;;;;5073729;28;20047;-86
2022/09/10 14:25:47;;;;;;;7.47;4.30;;;23.50;99.90;;;;;;5073127;28;20043;-87
2022/09/10 14:28:32;;;;;;;6.97;4.78;;;;;;;;;;5053007;28;20097;-88
2022/09/10 14:31:29;;;;;;;8.38;4.55;;;23.30;99.90;;;;;;5062018;28;20051;-89
2022/09/10 14:34:35;;;;;;;8.52;4.22;;;23.00;99.90;;;;;;5076377;28;20034;-88
2022/09/10 14:37:36;;;;;;;7.22;4.18;;;22.70;99.90;;;;;;5059905;28;20446;-89
2022/09/10 14:40:21;;;;;;;6.75;3.78;;;22.20;99.90;;;;;;5067155;28;20422;-88
2022/09/10 14:43:16;;;;;;;7.18;3.60;;;22.10;99.90;;;;;;5076234;28;20399;-91
2022/09/10 14:46:03;;;;;;;6.47;3.20;;;22.20;99.90;;;;;;5073988;28;20487;-88